createdAt,value
2019-03-26T00:01:22.813Z,7.50
2019-03-26T00:04:05.357Z,7.47
2019-03-26T00:06:26.576Z,7.52
2019-03-26T00:08:57.981Z,7.52
2019-03-26T00:11:29.287Z,7.46
2019-03-26T00:14:01.802Z,7.18
2019-03-26T00:16:33.197Z,7.35
2019-03-26T00:19:05.964Z,7.43
2019-03-26T00:21:36.764Z,7.36
2019-03-26T00:24:09.195Z,7.34
2019-03-26T00:26:40.678Z,7.27
2019-03-26T00:29:11.950Z,7.34
2019-03-26T00:31:43.228Z,7.37
2019-03-26T00:34:19.525Z,7.32
2019-03-26T00:36:48.408Z,7.04
2019-03-26T00:39:19.821Z,7.26
2019-03-26T00:41:51.205Z,7.31
2019-03-26T00:44:22.510Z,7.08
2019-03-26T00:46:53.927Z,7.21
2019-03-26T00:49:25.227Z,7.17
2019-03-26T00:51:56.653Z,7.17
2019-03-26T00:54:28.028Z,7.41
2019-03-26T00:56:59.484Z,7.23
2019-03-26T00:59:30.733Z,7.34
2019-03-26T01:02:02.231Z,7.21
2019-03-26T01:04:33.871Z,7.29
2019-03-26T01:07:05.247Z,7.36
2019-03-26T01:09:37.533Z,7.05
2019-03-26T01:12:08.982Z,7.16
2019-03-26T01:14:40.489Z,7.14
2019-03-26T01:17:11.771Z,7.29
2019-03-26T01:19:43.172Z,7.16
2019-03-26T01:22:15.077Z,7.12
2019-03-26T01:24:46.437Z,7.29
2019-03-26T01:27:17.754Z,7.29
2019-03-26T01:29:49.078Z,7.14
2019-03-26T01:32:20.447Z,7.14
2019-03-26T01:34:51.859Z,7.24
2019-03-26T01:37:23.158Z,7.23
2019-03-26T01:39:54.484Z,7.15
2019-03-26T01:42:25.699Z,7.12
2019-03-26T01:44:56.846Z,6.98
2019-03-26T01:47:28.085Z,7.12
2019-03-26T01:49:59.379Z,7.12
2019-03-26T01:52:30.784Z,7.03
2019-03-26T01:55:02.085Z,7.11
2019-03-26T01:57:33.472Z,7.11
2019-03-26T02:00:06.264Z,7.14
2019-03-26T02:02:38.769Z,7.16
2019-03-26T02:05:10.017Z,7.21
2019-03-26T02:07:41.380Z,7.22
2019-03-26T02:10:12.752Z,7.25
2019-03-26T02:12:44.146Z,7.15
2019-03-26T02:15:21.508Z,7.32
2019-03-26T02:17:52.857Z,7.13
2019-03-26T02:20:24.159Z,7.22
2019-03-26T02:22:55.979Z,7.23
2019-03-26T02:25:27.404Z,7.28
2019-03-26T02:27:58.725Z,7.21
2019-03-26T02:30:30.375Z,7.29
2019-03-26T02:33:01.879Z,7.17
2019-03-26T02:35:34.165Z,7.18
2019-03-26T02:38:05.475Z,7.20
2019-03-26T02:40:36.958Z,7.14
2019-03-26T02:43:08.184Z,7.28
2019-03-26T02:45:39.631Z,7.12
2019-03-26T02:48:11.044Z,7.24
2019-03-26T02:50:42.424Z,7.30
2019-03-26T02:53:13.793Z,7.33
2019-03-26T02:55:45.058Z,7.22
2019-03-26T02:58:16.347Z,7.23
2019-03-26T03:00:47.768Z,7.23
2019-03-26T03:03:19.023Z,7.34
2019-03-26T03:05:50.478Z,7.19
2019-03-26T03:08:22.189Z,7.26
2019-03-26T03:10:53.484Z,7.22
2019-03-26T03:13:24.843Z,7.21
2019-03-26T03:15:56.239Z,7.27
2019-03-26T03:18:27.531Z,7.22
2019-03-26T03:20:58.899Z,7.17
2019-03-26T03:23:30.437Z,7.21
2019-03-26T03:26:01.663Z,7.28
2019-03-26T03:28:33.994Z,7.28
2019-03-26T03:31:05.214Z,7.15
2019-03-26T03:33:37.665Z,7.30
2019-03-26T03:36:09.113Z,7.18
2019-03-26T03:38:41.603Z,7.17
2019-03-26T03:41:13.217Z,7.25
2019-03-26T03:43:46.155Z,7.25
2019-03-26T03:46:16.778Z,7.20
2019-03-26T03:48:48.259Z,7.14
2019-03-26T03:51:20.052Z,7.15
2019-03-26T03:53:51.384Z,7.35
2019-03-26T03:56:22.692Z,7.32
2019-03-26T03:58:54.039Z,7.23
2019-03-26T04:01:25.319Z,7.02
2019-03-26T04:03:56.623Z,7.24
2019-03-26T04:06:27.763Z,6.98
2019-03-26T04:08:59.111Z,7.05
2019-03-26T04:11:30.336Z,7.15
2019-03-26T04:14:01.607Z,7.19
2019-03-26T04:16:33.698Z,7.03
2019-03-26T04:19:05.087Z,7.08
2019-03-26T04:21:36.414Z,7.26
2019-03-26T04:24:07.770Z,7.17
2019-03-26T04:26:39.118Z,7.09
2019-03-26T04:29:10.465Z,7.06
2019-03-26T04:31:41.760Z,6.99
2019-03-26T04:34:13.138Z,7.00
2019-03-26T04:36:44.367Z,7.17
2019-03-26T04:39:15.649Z,7.33
2019-03-26T04:41:46.977Z,7.36
2019-03-26T04:44:18.290Z,7.36
2019-03-26T04:46:49.365Z,7.33
2019-03-26T04:49:20.673Z,7.44
2019-03-26T04:51:51.985Z,7.33
2019-03-26T04:54:23.120Z,7.22
2019-03-26T04:56:54.265Z,7.34
2019-03-26T04:59:25.617Z,7.43
2019-03-26T05:01:56.921Z,7.39
2019-03-26T05:04:28.313Z,7.31
2019-03-26T05:06:59.755Z,7.35
2019-03-26T05:09:31.072Z,7.31
2019-03-26T05:12:02.397Z,7.35
2019-03-26T05:14:33.712Z,7.34
2019-03-26T05:17:05.095Z,7.44
2019-03-26T05:19:36.407Z,7.31
2019-03-26T05:22:07.705Z,7.31
2019-03-26T05:24:38.997Z,7.60
2019-03-26T05:27:10.318Z,7.66
2019-03-26T05:29:41.705Z,7.70
2019-03-26T05:32:12.984Z,7.87
2019-03-26T05:34:44.184Z,8.05
2019-03-26T05:37:15.496Z,8.02
2019-03-26T05:39:46.883Z,7.99
2019-03-26T05:42:18.232Z,8.09
2019-03-26T05:44:49.997Z,8.07
2019-03-26T05:47:21.316Z,7.94
2019-03-26T05:49:52.538Z,7.98
2019-03-26T05:52:23.977Z,8.06
2019-03-26T05:54:57.979Z,8.49
2019-03-26T05:57:29.215Z,8.62
2019-03-26T06:00:00.458Z,8.92
2019-03-26T06:02:31.870Z,9.27
2019-03-26T06:05:03.244Z,9.55
2019-03-26T06:07:34.564Z,9.50
2019-03-26T06:10:09.714Z,9.60
2019-03-26T06:12:40.923Z,11.06
2019-03-26T06:15:12.855Z,11.76
2019-03-26T06:17:44.176Z,11.09
2019-03-26T06:20:15.758Z,9.54
2019-03-26T06:22:47.056Z,9.89
2019-03-26T06:25:18.518Z,10.35
2019-03-26T06:27:49.810Z,9.90
2019-03-26T06:30:21.072Z,10.78
2019-03-26T06:32:52.454Z,10.98
2019-03-26T06:35:23.868Z,11.59
2019-03-26T06:37:55.282Z,11.28
2019-03-26T06:40:26.829Z,11.10
2019-03-26T06:42:58.227Z,10.43
2019-03-26T06:45:30.027Z,9.77
2019-03-26T06:48:04.075Z,10.06
2019-03-26T06:50:34.511Z,10.28
2019-03-26T06:53:06.312Z,9.63
2019-03-26T06:55:37.801Z,9.59
2019-03-26T06:58:09.949Z,9.60
2019-03-26T07:00:41.315Z,9.63
2019-03-26T07:03:12.595Z,9.66
2019-03-26T07:05:43.819Z,9.50
2019-03-26T07:08:15.073Z,9.65
2019-03-26T07:10:46.462Z,10.43
2019-03-26T07:13:18.010Z,10.74
2019-03-26T07:15:49.323Z,10.34
2019-03-26T07:18:20.622Z,10.04
2019-03-26T07:20:52.090Z,10.01
2019-03-26T07:23:23.447Z,9.95
2019-03-26T07:25:55.034Z,9.92
2019-03-26T07:28:27.837Z,9.78
2019-03-26T07:30:59.073Z,9.62
2019-03-26T07:33:30.410Z,9.36
2019-03-26T07:36:01.666Z,9.45
2019-03-26T07:38:33.019Z,9.46
2019-03-26T07:41:04.389Z,9.21
2019-03-26T07:43:35.655Z,9.35
2019-03-26T07:46:08.155Z,9.02
2019-03-26T07:48:39.461Z,9.13
2019-03-26T07:51:10.789Z,8.96
2019-03-26T07:53:42.139Z,9.10
2019-03-26T07:56:13.358Z,9.11
2019-03-26T07:58:44.544Z,8.95
2019-03-26T08:01:15.814Z,8.95
2019-03-26T08:03:47.025Z,9.19
2019-03-26T08:06:18.267Z,8.94
2019-03-26T08:08:49.664Z,8.75
2019-03-26T08:11:20.960Z,8.76
2019-03-26T08:13:52.373Z,8.69
2019-03-26T08:16:23.647Z,8.81
2019-03-26T08:18:55.101Z,8.95
2019-03-26T08:21:26.429Z,9.12
2019-03-26T08:23:57.768Z,9.27
2019-03-26T08:26:29.143Z,9.39
2019-03-26T08:29:01.103Z,9.52
2019-03-26T08:31:32.455Z,9.55
2019-03-26T08:34:03.798Z,9.80
2019-03-26T08:36:35.040Z,9.88
2019-03-26T08:39:07.969Z,10.02
2019-03-26T08:41:39.473Z,9.90
2019-03-26T08:44:10.780Z,10.03
2019-03-26T08:46:42.262Z,10.03
2019-03-26T08:49:14.310Z,10.30
2019-03-26T08:51:45.832Z,10.43
2019-03-26T08:54:19.456Z,10.48
2019-03-26T08:56:50.603Z,10.82
2019-03-26T08:59:21.844Z,10.79
2019-03-26T09:01:53.482Z,10.92
2019-03-26T09:04:26.957Z,10.79
2019-03-26T09:06:58.041Z,10.71
2019-03-26T09:09:29.332Z,10.60
2019-03-26T09:12:00.569Z,10.62
2019-03-26T09:14:31.943Z,10.33
2019-03-26T09:17:03.315Z,10.14
2019-03-26T09:19:35.072Z,10.31
2019-03-26T09:22:06.455Z,10.14
2019-03-26T09:24:39.355Z,10.00
2019-03-26T09:27:10.128Z,10.14
2019-03-26T09:29:41.242Z,10.05
2019-03-26T09:32:12.520Z,10.08
2019-03-26T09:34:43.761Z,9.95
2019-03-26T09:37:15.372Z,10.02
2019-03-26T09:39:46.759Z,10.12
2019-03-26T09:42:18.169Z,10.24
2019-03-26T09:44:49.483Z,10.76
2019-03-26T09:47:24.418Z,11.08
2019-03-26T09:49:59.873Z,11.93
2019-03-26T09:52:33.867Z,11.76
2019-03-26T09:55:07.598Z,12.26
2019-03-26T09:57:39.034Z,12.45
2019-03-26T10:00:11.631Z,12.87
2019-03-26T10:02:43.651Z,12.32
2019-03-26T10:05:15.267Z,12.45
2019-03-26T10:07:46.544Z,12.30
2019-03-26T10:10:21.136Z,12.32
2019-03-26T10:12:52.596Z,12.55
2019-03-26T10:15:24.139Z,12.25
2019-03-26T10:17:55.562Z,11.69
2019-03-26T10:20:26.950Z,11.32
2019-03-26T10:23:01.465Z,11.66
2019-03-26T10:25:32.840Z,12.24
2019-03-26T10:28:04.230Z,12.25
2019-03-26T10:30:38.975Z,11.96
2019-03-26T10:33:10.455Z,11.64
2019-03-26T10:35:43.746Z,11.40
2019-03-26T10:38:15.314Z,11.76
2019-03-26T10:40:46.689Z,11.92
2019-03-26T10:43:19.944Z,12.86
2019-03-26T10:45:51.272Z,12.29
2019-03-26T10:48:22.552Z,12.05
2019-03-26T10:50:53.797Z,12.05
2019-03-26T10:53:25.078Z,11.61
2019-03-26T10:55:56.464Z,11.39
2019-03-26T10:58:27.763Z,11.49
2019-03-26T11:00:59.133Z,11.58
2019-03-26T11:03:32.329Z,12.37
2019-03-26T11:06:03.866Z,12.75
2019-03-26T11:08:35.381Z,12.21
2019-03-26T11:11:06.912Z,12.40
2019-03-26T11:13:38.512Z,12.17
2019-03-26T11:16:10.163Z,11.79
2019-03-26T11:18:42.606Z,11.81
